sensor_id;sensor_type;location;lat;lon;timestamp;temperature;humidity
18139;DHT22;9195;53.176;9.486;2022-10-13T00:00:38;9.80;99.90
18139;DHT22;9195;53.176;9.486;2022-10-13T00:03:04;9.70;99.90
18139;DHT22;9195;53.176;9.486;2022-10-13T00:05:30;9.70;99.90
18139;DHT22;9195;53.176;9.486;2022-10-13T00:07:56;9.70;99.90
18139;DHT22;9195;53.176;9.486;2022-10-13T00:10:23;9.60;99.90
18139;DHT22;9195;53.176;9.486;2022-10-13T00:12:50;9.60;99.90
18139;DHT22;9195;53.176;9.486;2022-10-13T00:15:15;9.60;99.90
18139;DHT22;9195;53.176;9.486;2022-10-13T00:17:41;9.60;99.90
18139;DHT22;9195;53.176;9.486;2022-10-13T00:20:08;9.50;99.90
18139;DHT22;9195;53.176;9.486;2022-10-13T00:22:34;9.50;99.90
18139;DHT22;9195;53.176;9.486;2022-10-13T00:25:00;9.40;99.90
18139;DHT22;9195;53.176;9.486;2022-10-13T00:27:26;9.40;99.90
18139;DHT22;9195;53.176;9.486;2022-10-13T00:29:51;9.30;99.90
18139;DHT22;9195;53.176;9.486;2022-10-13T00:32:17;9.30;99.90
18139;DHT22;9195;53.176;9.486;2022-10-13T00:34:43;9.30;99.90
18139;DHT22;9195;53.176;9.486;2022-10-13T00:37:09;9.30;99.90
18139;DHT22;9195;53.176;9.486;2022-10-13T00:39:35;9.20;99.90
18139;DHT22;9195;53.176;9.486;2022-10-13T00:42:02;9.10;99.90
18139;DHT22;9195;53.176;9.486;2022-10-13T00:47:40;9.10;99.90
18139;DHT22;9195;53.176;9.486;2022-10-13T00:50:20;9.10;99.90
18139;DHT22;9195;53.176;9.486;2022-10-13T00:52:47;9.10;99.90
18139;DHT22;9195;53.176;9.486;2022-10-13T00:55:17;9.10;99.90
18139;DHT22;9195;53.176;9.486;2022-10-13T00:57:45;9.10;99.90
18139;DHT22;9195;53.176;9.486;2022-10-13T01:00:13;9.10;99.90
18139;DHT22;9195;53.176;9.486;2022-10-13T01:02:39;9.10;99.90
18139;DHT22;9195;53.176;9.486;2022-10-13T01:05:06;9.10;99.90
18139;DHT22;9195;53.176;9.486;2022-10-13T01:07:33;9.20;99.90
18139;DHT22;9195;53.176;9.486;2022-10-13T01:09:58;9.10;99.90
18139;DHT22;9195;53.176;9.486;2022-10-13T01:13:02;9.10;99.90
18139;DHT22;9195;53.176;9.486;2022-10-13T01:15:33;9.00;99.90
18139;DHT22;9195;53.176;9.486;2022-10-13T01:21:46;9.00;99.90
18139;DHT22;9195;53.176;9.486;2022-10-13T01:33:12;8.90;99.90
18139;DHT22;9195;53.176;9.486;2022-10-13T01:35:13;8.80;99.90
18139;DHT22;9195;53.176;9.486;2022-10-13T01:38:00;8.80;99.90
18139;DHT22;9195;53.176;9.486;2022-10-13T01:40:48;8.80;99.90
18139;DHT22;9195;53.176;9.486;2022-10-13T01:43:22;8.80;99.90
18139;DHT22;9195;53.176;9.486;2022-10-13T01:46:00;8.80;99.90
18139;DHT22;9195;53.176;9.486;2022-10-13T01:48:28;8.80;99.90
18139;DHT22;9195;53.176;9.486;2022-10-13T01:50:55;8.80;99.90
18139;DHT22;9195;53.176;9.486;2022-10-13T01:53:23;8.80;99.90
18139;DHT22;9195;53.176;9.486;2022-10-13T01:55:59;8.80;99.90
18139;DHT22;9195;53.176;9.486;2022-10-13T01:58:28;8.70;99.90
18139;DHT22;9195;53.176;9.486;2022-10-13T02:06:46;8.80;99.90
18139;DHT22;9195;53.176;9.486;2022-10-13T02:09:34;8.80;99.90
18139;DHT22;9195;53.176;9.486;2022-10-13T02:12:10;8.70;99.90
18139;DHT22;9195;53.176;9.486;2022-10-13T02:14:40;8.80;99.90
18139;DHT22;9195;53.176;9.486;2022-10-13T02:17:07;8.80;99.90
18139;DHT22;9195;53.176;9.486;2022-10-13T02:19:35;8.80;99.90
18139;DHT22;9195;53.176;9.486;2022-10-13T02:22:02;8.80;99.90
18139;DHT22;9195;53.176;9.486;2022-10-13T02:24:28;8.80;99.90
18139;DHT22;9195;53.176;9.486;2022-10-13T02:26:55;8.80;99.90
18139;DHT22;9195;53.176;9.486;2022-10-13T02:29:20;8.80;99.90
18139;DHT22;9195;53.176;9.486;2022-10-13T02:31:46;8.80;99.90
18139;DHT22;9195;53.176;9.486;2022-10-13T02:34:12;8.70;99.90
18139;DHT22;9195;53.176;9.486;2022-10-13T02:36:38;8.70;99.90
18139;DHT22;9195;53.176;9.486;2022-10-13T02:39:08;8.70;99.90
18139;DHT22;9195;53.176;9.486;2022-10-13T02:41:34;8.70;99.90
18139;DHT22;9195;53.176;9.486;2022-10-13T02:43:59;8.70;99.90
18139;DHT22;9195;53.176;9.486;2022-10-13T02:46:25;8.70;99.90
18139;DHT22;9195;53.176;9.486;2022-10-13T02:48:51;8.80;99.90
18139;DHT22;9195;53.176;9.486;2022-10-13T02:51:16;8.80;99.90
18139;DHT22;9195;53.176;9.486;2022-10-13T02:53:42;8.80;99.90
18139;DHT22;9195;53.176;9.486;2022-10-13T02:56:08;8.80;99.90
18139;DHT22;9195;53.176;9.486;2022-10-13T02:58:34;8.70;99.90
18139;DHT22;9195;53.176;9.486;2022-10-13T03:01:12;8.80;99.90
18139;DHT22;9195;53.176;9.486;2022-10-13T03:03:38;8.80;99.90
18139;DHT22;9195;53.176;9.486;2022-10-13T03:06:05;8.90;99.90
18139;DHT22;9195;53.176;9.486;2022-10-13T03:08:32;8.90;99.90
18139;DHT22;9195;53.176;9.486;2022-10-13T03:10:58;8.90;99.90
18139;DHT22;9195;53.176;9.486;2022-10-13T03:13:24;8.90;99.90
18139;DHT22;9195;53.176;9.486;2022-10-13T03:15:49;8.90;99.90
18139;DHT22;9195;53.176;9.486;2022-10-13T03:18:15;8.90;99.90
18139;DHT22;9195;53.176;9.486;2022-10-13T03:20:41;8.90;99.90
18139;DHT22;9195;53.176;9.486;2022-10-13T03:23:06;8.90;99.90
18139;DHT22;9195;53.176;9.486;2022-10-13T03:25:33;8.90;99.90
18139;DHT22;9195;53.176;9.486;2022-10-13T03:27:58;8.90;99.90
18139;DHT22;9195;53.176;9.486;2022-10-13T03:30:24;9.00;99.90
18139;DHT22;9195;53.176;9.486;2022-10-13T03:32:51;8.90;99.90
18139;DHT22;9195;53.176;9.486;2022-10-13T03:35:16;8.90;99.90
18139;DHT22;9195;53.176;9.486;2022-10-13T03:37:42;8.90;99.90
18139;DHT22;9195;53.176;9.486;2022-10-13T03:40:08;9.00;99.90
18139;DHT22;9195;53.176;9.486;2022-10-13T03:42:35;9.00;99.90
18139;DHT22;9195;53.176;9.486;2022-10-13T03:45:02;8.90;99.90
18139;DHT22;9195;53.176;9.486;2022-10-13T03:47:28;9.00;99.90
18139;DHT22;9195;53.176;9.486;2022-10-13T03:49:54;9.00;99.90
18139;DHT22;9195;53.176;9.486;2022-10-13T03:52:20;9.00;99.90
18139;DHT22;9195;53.176;9.486;2022-10-13T03:54:46;9.00;99.90
18139;DHT22;9195;53.176;9.486;2022-10-13T03:57:11;9.00;99.90
18139;DHT22;9195;53.176;9.486;2022-10-13T03:59:40;9.00;99.90
18139;DHT22;9195;53.176;9.486;2022-10-13T04:02:06;9.00;99.90
18139;DHT22;9195;53.176;9.486;2022-10-13T04:04:33;9.00;99.90
18139;DHT22;9195;53.176;9.486;2022-10-13T04:06:59;9.00;99.90
18139;DHT22;9195;53.176;9.486;2022-10-13T04:09:25;9.00;99.90
18139;DHT22;9195;53.176;9.486;2022-10-13T04:11:51;9.00;99.90
18139;DHT22;9195;53.176;9.486;2022-10-13T04:14:17;9.00;99.90
18139;DHT22;9195;53.176;9.486;2022-10-13T04:16:43;9.00;99.90
18139;DHT22;9195;53.176;9.486;2022-10-13T04:19:13;9.00;99.90
18139;DHT22;9195;53.176;9.486;2022-10-13T04:21:39;9.00;99.90
18139;DHT22;9195;53.176;9.486;2022-10-13T04:24:05;9.00;99.90
18139;DHT22;9195;53.176;9.486;2022-10-13T04:26:34;9.00;99.90
18139;DHT22;9195;53.176;9.486;2022-10-13T04:29:02;9.00;99.90
18139;DHT22;9195;53.176;9.486;2022-10-13T04:31:29;9.00;99.90
18139;DHT22;9195;53.176;9.486;2022-10-13T04:33:56;9.00;99.90
18139;DHT22;9195;53.176;9.486;2022-10-13T04:36:22;9.00;99.90
18139;DHT22;9195;53.176;9.486;2022-10-13T04:38:48;9.00;99.90
18139;DHT22;9195;53.176;9.486;2022-10-13T04:41:15;9.00;99.90
18139;DHT22;9195;53.176;9.486;2022-10-13T04:43:42;9.00;99.90
18139;DHT22;9195;53.176;9.486;2022-10-13T04:46:20;9.10;99.90
18139;DHT22;9195;53.176;9.486;2022-10-13T04:48:46;9.10;99.90
18139;DHT22;9195;53.176;9.486;2022-10-13T04:51:14;9.10;99.90
18139;DHT22;9195;53.176;9.486;2022-10-13T04:53:41;9.10;99.90
18139;DHT22;9195;53.176;9.486;2022-10-13T04:56:10;9.10;99.90
18139;DHT22;9195;53.176;9.486;2022-10-13T04:58:37;9.10;99.90
18139;DHT22;9195;53.176;9.486;2022-10-13T05:01:05;9.10;99.90
18139;DHT22;9195;53.176;9.486;2022-10-13T05:03:32;9.10;99.90
18139;DHT22;9195;53.176;9.486;2022-10-13T05:05:57;9.10;99.90
18139;DHT22;9195;53.176;9.486;2022-10-13T05:08:23;9.20;99.90
18139;DHT22;9195;53.176;9.486;2022-10-13T05:10:56;9.20;99.90
18139;DHT22;9195;53.176;9.486;2022-10-13T05:13:22;9.20;99.90
18139;DHT22;9195;53.176;9.486;2022-10-13T05:15:48;9.30;99.90
18139;DHT22;9195;53.176;9.486;2022-10-13T05:18:14;9.30;99.90
18139;DHT22;9195;53.176;9.486;2022-10-13T05:20:40;9.30;99.90
18139;DHT22;9195;53.176;9.486;2022-10-13T05:23:05;9.30;99.90
18139;DHT22;9195;53.176;9.486;2022-10-13T05:25:32;9.40;99.90
18139;DHT22;9195;53.176;9.486;2022-10-13T05:27:58;9.40;99.90
18139;DHT22;9195;53.176;9.486;2022-10-13T05:30:23;9.40;99.90
18139;DHT22;9195;53.176;9.486;2022-10-13T05:32:49;9.50;99.90
18139;DHT22;9195;53.176;9.486;2022-10-13T05:35:15;9.50;99.90
18139;DHT22;9195;53.176;9.486;2022-10-13T05:37:40;9.50;99.90
18139;DHT22;9195;53.176;9.486;2022-10-13T05:40:07;9.50;99.90
18139;DHT22;9195;53.176;9.486;2022-10-13T05:42:34;9.60;99.90
18139;DHT22;9195;53.176;9.486;2022-10-13T05:45:00;9.60;99.90
18139;DHT22;9195;53.176;9.486;2022-10-13T05:47:26;9.60;99.90
18139;DHT22;9195;53.176;9.486;2022-10-13T05:49:53;9.60;99.90
18139;DHT22;9195;53.176;9.486;2022-10-13T05:52:20;9.60;99.90
18139;DHT22;9195;53.176;9.486;2022-10-13T05:54:50;9.70;99.90
18139;DHT22;9195;53.176;9.486;2022-10-13T05:57:29;9.70;99.90
18139;DHT22;9195;53.176;9.486;2022-10-13T05:59:59;9.70;99.90
18139;DHT22;9195;53.176;9.486;2022-10-13T06:02:30;9.80;99.90
18139;DHT22;9195;53.176;9.486;2022-10-13T06:04:59;9.80;99.90
18139;DHT22;9195;53.176;9.486;2022-10-13T06:07:26;9.90;99.90
18139;DHT22;9195;53.176;9.486;2022-10-13T06:09:53;9.80;99.90
18139;DHT22;9195;53.176;9.486;2022-10-13T06:12:19;9.90;99.90
18139;DHT22;9195;53.176;9.486;2022-10-13T06:14:44;9.90;99.90
18139;DHT22;9195;53.176;9.486;2022-10-13T06:17:10;9.90;99.90
18139;DHT22;9195;53.176;9.486;2022-10-13T06:19:36;9.90;99.90
18139;DHT22;9195;53.176;9.486;2022-10-13T06:22:02;10.00;99.90
18139;DHT22;9195;53.176;9.486;2022-10-13T06:24:27;10.00;99.90
18139;DHT22;9195;53.176;9.486;2022-10-13T06:26:53;10.10;99.90
18139;DHT22;9195;53.176;9.486;2022-10-13T06:29:19;10.10;99.90
18139;DHT22;9195;53.176;9.486;2022-10-13T06:31:44;10.10;99.90
18139;DHT22;9195;53.176;9.486;2022-10-13T06:34:10;10.20;99.90
18139;DHT22;9195;53.176;9.486;2022-10-13T06:36:36;10.20;99.90
18139;DHT22;9195;53.176;9.486;2022-10-13T06:39:02;10.20;99.90
18139;DHT22;9195;53.176;9.486;2022-10-13T06:41:28;10.20;99.90
18139;DHT22;9195;53.176;9.486;2022-10-13T06:43:54;10.30;99.90
18139;DHT22;9195;53.176;9.486;2022-10-13T06:46:19;10.40;99.90
18139;DHT22;9195;53.176;9.486;2022-10-13T06:48:48;10.40;99.90
18139;DHT22;9195;53.176;9.486;2022-10-13T06:51:14;10.50;99.90
18139;DHT22;9195;53.176;9.486;2022-10-13T06:53:39;10.50;99.90
18139;DHT22;9195;53.176;9.486;2022-10-13T06:56:07;10.50;99.90
18139;DHT22;9195;53.176;9.486;2022-10-13T06:58:34;10.60;99.90
18139;DHT22;9195;53.176;9.486;2022-10-13T07:01:00;10.60;99.90
18139;DHT22;9195;53.176;9.486;2022-10-13T07:03:25;10.60;99.90
18139;DHT22;9195;53.176;9.486;2022-10-13T07:05:51;10.70;99.90
18139;DHT22;9195;53.176;9.486;2022-10-13T07:08:17;10.70;99.90
18139;DHT22;9195;53.176;9.486;2022-10-13T07:10:43;10.70;99.90
18139;DHT22;9195;53.176;9.486;2022-10-13T07:13:09;10.80;99.90
18139;DHT22;9195;53.176;9.486;2022-10-13T07:15:39;10.90;99.90
18139;DHT22;9195;53.176;9.486;2022-10-13T07:18:05;10.90;99.90
18139;DHT22;9195;53.176;9.486;2022-10-13T07:20:31;10.90;99.90
18139;DHT22;9195;53.176;9.486;2022-10-13T07:22:57;11.00;99.90
18139;DHT22;9195;53.176;9.486;2022-10-13T07:25:23;11.10;99.90
18139;DHT22;9195;53.176;9.486;2022-10-13T07:27:48;11.20;99.90
18139;DHT22;9195;53.176;9.486;2022-10-13T07:30:14;11.30;99.90
18139;DHT22;9195;53.176;9.486;2022-10-13T07:32:40;11.30;99.90
18139;DHT22;9195;53.176;9.486;2022-10-13T07:35:08;11.30;99.90
18139;DHT22;9195;53.176;9.486;2022-10-13T07:37:35;11.50;99.90
18139;DHT22;9195;53.176;9.486;2022-10-13T07:40:02;11.50;99.90
18139;DHT22;9195;53.176;9.486;2022-10-13T07:42:28;11.60;99.90
18139;DHT22;9195;53.176;9.486;2022-10-13T07:44:53;11.60;99.90
18139;DHT22;9195;53.176;9.486;2022-10-13T07:47:19;11.60;99.90
18139;DHT22;9195;53.176;9.486;2022-10-13T07:49:45;11.60;99.90
18139;DHT22;9195;53.176;9.486;2022-10-13T07:52:10;11.70;99.90
18139;DHT22;9195;53.176;9.486;2022-10-13T07:54:36;11.80;99.90
18139;DHT22;9195;53.176;9.486;2022-10-13T07:57:02;11.80;99.90
18139;DHT22;9195;53.176;9.486;2022-10-13T07:59:27;11.90;99.90
18139;DHT22;9195;53.176;9.486;2022-10-13T08:01:53;11.90;99.90
18139;DHT22;9195;53.176;9.486;2022-10-13T08:04:19;12.00;99.90
18139;DHT22;9195;53.176;9.486;2022-10-13T08:06:45;12.10;99.90
18139;DHT22;9195;53.176;9.486;2022-10-13T08:09:11;12.20;99.90
18139;DHT22;9195;53.176;9.486;2022-10-13T08:11:37;12.20;99.90
18139;DHT22;9195;53.176;9.486;2022-10-13T08:14:03;12.30;99.90
18139;DHT22;9195;53.176;9.486;2022-10-13T08:16:29;12.30;99.90
18139;DHT22;9195;53.176;9.486;2022-10-13T08:18:57;12.40;99.90
18139;DHT22;9195;53.176;9.486;2022-10-13T08:21:23;12.50;99.90
18139;DHT22;9195;53.176;9.486;2022-10-13T08:23:49;12.60;99.90
18139;DHT22;9195;53.176;9.486;2022-10-13T08:26:18;12.60;99.90
18139;DHT22;9195;53.176;9.486;2022-10-13T08:28:44;12.60;99.90
18139;DHT22;9195;53.176;9.486;2022-10-13T08:31:10;12.60;99.90
18139;DHT22;9195;53.176;9.486;2022-10-13T08:33:36;12.70;99.90
18139;DHT22;9195;53.176;9.486;2022-10-13T08:36:02;12.80;99.90
18139;DHT22;9195;53.176;9.486;2022-10-13T08:38:27;12.90;99.90
18139;DHT22;9195;53.176;9.486;2022-10-13T08:40:53;13.00;99.90
18139;DHT22;9195;53.176;9.486;2022-10-13T08:43:21;13.20;99.90
18139;DHT22;9195;53.176;9.486;2022-10-13T08:45:54;13.40;99.90
18139;DHT22;9195;53.176;9.486;2022-10-13T08:48:24;13.60;99.90
18139;DHT22;9195;53.176;9.486;2022-10-13T08:50:54;13.80;99.90
18139;DHT22;9195;53.176;9.486;2022-10-13T08:53:36;13.90;99.90
18139;DHT22;9195;53.176;9.486;2022-10-13T08:56:18;14.10;99.90
18139;DHT22;9195;53.176;9.486;2022-10-13T08:58:46;14.30;99.90
18139;DHT22;9195;53.176;9.486;2022-10-13T09:01:17;14.50;99.90
18139;DHT22;9195;53.176;9.486;2022-10-13T09:04:09;14.90;99.90
18139;DHT22;9195;53.176;9.486;2022-10-13T09:06:54;14.80;99.90
18139;DHT22;9195;53.176;9.486;2022-10-13T09:09:20;14.70;99.90
18139;DHT22;9195;53.176;9.486;2022-10-13T09:11:48;14.70;99.90
18139;DHT22;9195;53.176;9.486;2022-10-13T09:16:53;14.60;99.90
18139;DHT22;9195;53.176;9.486;2022-10-13T09:19:23;14.60;99.90
18139;DHT22;9195;53.176;9.486;2022-10-13T09:21:57;14.50;99.90
18139;DHT22;9195;53.176;9.486;2022-10-13T09:24:37;14.60;99.90
18139;DHT22;9195;53.176;9.486;2022-10-13T09:27:09;14.60;99.90
18139;DHT22;9195;53.176;9.486;2022-10-13T09:29:36;14.80;99.90
18139;DHT22;9195;53.176;9.486;2022-10-13T09:34:39;14.70;99.90
18139;DHT22;9195;53.176;9.486;2022-10-13T09:37:10;15.00;99.90
18139;DHT22;9195;53.176;9.486;2022-10-13T09:39:40;15.30;99.90
18139;DHT22;9195;53.176;9.486;2022-10-13T09:42:25;15.60;99.90
18139;DHT22;9195;53.176;9.486;2022-10-13T09:45:15;16.10;99.90
18139;DHT22;9195;53.176;9.486;2022-10-13T09:47:53;16.70;99.90
18139;DHT22;9195;53.176;9.486;2022-10-13T09:50:46;16.80;99.90
18139;DHT22;9195;53.176;9.486;2022-10-13T09:56:17;17.70;99.90
18139;DHT22;9195;53.176;9.486;2022-10-13T09:58:50;18.20;99.90
18139;DHT22;9195;53.176;9.486;2022-10-13T10:01:25;18.60;99.90
18139;DHT22;9195;53.176;9.486;2022-10-13T10:03:52;18.80;99.90
18139;DHT22;9195;53.176;9.486;2022-10-13T10:06:19;18.70;99.90
18139;DHT22;9195;53.176;9.486;2022-10-13T10:11:28;18.60;99.90
18139;DHT22;9195;53.176;9.486;2022-10-13T10:13:56;18.90;99.90
18139;DHT22;9195;53.176;9.486;2022-10-13T10:16:39;18.70;99.90
18139;DHT22;9195;53.176;9.486;2022-10-13T10:27:23;17.70;99.90
18139;DHT22;9195;53.176;9.486;2022-10-13T10:29:57;17.80;99.90
18139;DHT22;9195;53.176;9.486;2022-10-13T10:32:53;18.20;99.90
18139;DHT22;9195;53.176;9.486;2022-10-13T10:35:47;18.40;99.90
18139;DHT22;9195;53.176;9.486;2022-10-13T10:38:43;18.50;99.90
18139;DHT22;9195;53.176;9.486;2022-10-13T10:41:33;18.90;99.90
18139;DHT22;9195;53.176;9.486;2022-10-13T10:44:14;19.70;99.90
18139;DHT22;9195;53.176;9.486;2022-10-13T10:46:47;20.40;99.90
18139;DHT22;9195;53.176;9.486;2022-10-13T10:49:22;20.20;99.90
18139;DHT22;9195;53.176;9.486;2022-10-13T10:51:50;19.90;99.90
18139;DHT22;9195;53.176;9.486;2022-10-13T10:57:20;21.10;99.90
18139;DHT22;9195;53.176;9.486;2022-10-13T11:00:10;21.60;99.90
18139;DHT22;9195;53.176;9.486;2022-10-13T11:05:02;21.40;99.90
18139;DHT22;9195;53.176;9.486;2022-10-13T11:12:22;19.80;99.90
18139;DHT22;9195;53.176;9.486;2022-10-13T11:15:02;19.30;99.90
18139;DHT22;9195;53.176;9.486;2022-10-13T11:17:34;19.20;99.90
18139;DHT22;9195;53.176;9.486;2022-10-13T11:25:43;19.50;99.90
18139;DHT22;9195;53.176;9.486;2022-10-13T11:30:53;23.30;99.90
18139;DHT22;9195;53.176;9.486;2022-10-13T11:36:34;25.70;96.50
18139;DHT22;9195;53.176;9.486;2022-10-13T11:41:49;28.20;90.60
18139;DHT22;9195;53.176;9.486;2022-10-13T11:55:41;21.50;96.80
18139;DHT22;9195;53.176;9.486;2022-10-13T11:58:15;20.50;98.40
18139;DHT22;9195;53.176;9.486;2022-10-13T12:00:54;20.20;99.00
18139;DHT22;9195;53.176;9.486;2022-10-13T12:03:41;19.70;99.90
18139;DHT22;9195;53.176;9.486;2022-10-13T12:08:57;19.60;99.90
18139;DHT22;9195;53.176;9.486;2022-10-13T12:11:33;19.50;99.90
18139;DHT22;9195;53.176;9.486;2022-10-13T12:14:00;19.30;99.90
18139;DHT22;9195;53.176;9.486;2022-10-13T12:16:27;19.40;99.90
18139;DHT22;9195;53.176;9.486;2022-10-13T12:19:05;19.20;99.90
18139;DHT22;9195;53.176;9.486;2022-10-13T12:21:31;19.00;99.90
18139;DHT22;9195;53.176;9.486;2022-10-13T12:24:07;19.10;99.90
18139;DHT22;9195;53.176;9.486;2022-10-13T12:26:33;19.10;99.90
18139;DHT22;9195;53.176;9.486;2022-10-13T12:29:02;19.10;99.90
18139;DHT22;9195;53.176;9.486;2022-10-13T12:31:39;19.00;99.90
18139;DHT22;9195;53.176;9.486;2022-10-13T12:34:31;18.90;99.90
18139;DHT22;9195;53.176;9.486;2022-10-13T12:37:00;19.00;99.90
18139;DHT22;9195;53.176;9.486;2022-10-13T12:39:28;19.20;99.90
18139;DHT22;9195;53.176;9.486;2022-10-13T12:41:56;19.80;99.90
18139;DHT22;9195;53.176;9.486;2022-10-13T12:44:27;20.50;99.90
18139;DHT22;9195;53.176;9.486;2022-10-13T12:46:55;20.60;99.90
18139;DHT22;9195;53.176;9.486;2022-10-13T12:49:34;20.30;99.90
18139;DHT22;9195;53.176;9.486;2022-10-13T12:52:20;19.20;99.90
18139;DHT22;9195;53.176;9.486;2022-10-13T12:54:50;19.10;99.90
18139;DHT22;9195;53.176;9.486;2022-10-13T12:57:31;19.00;99.90
18139;DHT22;9195;53.176;9.486;2022-10-13T13:02:56;18.60;99.90
18139;DHT22;9195;53.176;9.486;2022-10-13T13:05:33;18.50;99.90
18139;DHT22;9195;53.176;9.486;2022-10-13T13:08:00;18.20;99.90
18139;DHT22;9195;53.176;9.486;2022-10-13T13:10:26;18.00;99.90
18139;DHT22;9195;53.176;9.486;2022-10-13T13:12:53;17.80;99.90
18139;DHT22;9195;53.176;9.486;2022-10-13T13:15:35;17.40;99.90
18139;DHT22;9195;53.176;9.486;2022-10-13T13:20:52;17.00;99.90
18139;DHT22;9195;53.176;9.486;2022-10-13T13:23:18;17.00;99.90
18139;DHT22;9195;53.176;9.486;2022-10-13T13:28:32;16.80;99.90
18139;DHT22;9195;53.176;9.486;2022-10-13T13:30:58;16.70;99.90
18139;DHT22;9195;53.176;9.486;2022-10-13T13:33:24;16.60;99.90
18139;DHT22;9195;53.176;9.486;2022-10-13T13:35:50;16.60;99.90
18139;DHT22;9195;53.176;9.486;2022-10-13T13:38:16;16.70;99.90
18139;DHT22;9195;53.176;9.486;2022-10-13T13:40:41;16.70;99.90
18139;DHT22;9195;53.176;9.486;2022-10-13T13:43:07;16.80;99.90
18139;DHT22;9195;53.176;9.486;2022-10-13T13:45:34;16.70;99.90
18139;DHT22;9195;53.176;9.486;2022-10-13T13:48:00;16.80;99.90
18139;DHT22;9195;53.176;9.486;2022-10-13T13:50:32;16.90;99.90
18139;DHT22;9195;53.176;9.486;2022-10-13T13:52:58;17.00;99.90
18139;DHT22;9195;53.176;9.486;2022-10-13T13:55:25;17.20;99.90
18139;DHT22;9195;53.176;9.486;2022-10-13T13:57:51;17.30;99.90
18139;DHT22;9195;53.176;9.486;2022-10-13T14:00:18;17.40;99.90
18139;DHT22;9195;53.176;9.486;2022-10-13T14:02:43;17.60;99.90
18139;DHT22;9195;53.176;9.486;2022-10-13T14:05:10;19.60;99.90
18139;DHT22;9195;53.176;9.486;2022-10-13T14:07:36;24.30;99.90
18139;DHT22;9195;53.176;9.486;2022-10-13T14:10:02;24.90;96.70
18139;DHT22;9195;53.176;9.486;2022-10-13T14:12:29;24.70;96.70
18139;DHT22;9195;53.176;9.486;2022-10-13T14:14:55;26.20;95.40
18139;DHT22;9195;53.176;9.486;2022-10-13T14:17:21;26.50;93.80
18139;DHT22;9195;53.176;9.486;2022-10-13T14:19:47;27.30;93.30
18139;DHT22;9195;53.176;9.486;2022-10-13T14:22:13;27.00;91.90
18139;DHT22;9195;53.176;9.486;2022-10-13T14:24:38;26.60;92.70
18139;DHT22;9195;53.176;9.486;2022-10-13T14:27:04;26.10;92.90
18139;DHT22;9195;53.176;9.486;2022-10-13T14:29:29;25.00;93.10
18139;DHT22;9195;53.176;9.486;2022-10-13T14:31:55;24.60;94.30
18139;DHT22;9195;53.176;9.486;2022-10-13T14:34:21;24.90;94.00
18139;DHT22;9195;53.176;9.486;2022-10-13T14:36:46;24.90;94.20
18139;DHT22;9195;53.176;9.486;2022-10-13T14:39:12;24.70;93.50
18139;DHT22;9195;53.176;9.486;2022-10-13T14:41:38;24.40;94.00
18139;DHT22;9195;53.176;9.486;2022-10-13T14:44:04;23.70;94.30
18139;DHT22;9195;53.176;9.486;2022-10-13T14:46:29;23.20;95.20
18139;DHT22;9195;53.176;9.486;2022-10-13T14:48:55;22.80;96.00
18139;DHT22;9195;53.176;9.486;2022-10-13T14:51:23;22.30;96.10
18139;DHT22;9195;53.176;9.486;2022-10-13T14:53:49;21.70;96.90
18139;DHT22;9195;53.176;9.486;2022-10-13T14:56:26;21.10;97.90
18139;DHT22;9195;53.176;9.486;2022-10-13T14:58:53;20.50;98.80
18139;DHT22;9195;53.176;9.486;2022-10-13T15:01:20;19.90;99.50
18139;DHT22;9195;53.176;9.486;2022-10-13T15:03:46;19.50;99.90
18139;DHT22;9195;53.176;9.486;2022-10-13T15:06:17;19.20;99.90
18139;DHT22;9195;53.176;9.486;2022-10-13T15:08:44;18.70;99.90
18139;DHT22;9195;53.176;9.486;2022-10-13T15:11:10;18.40;99.90
18139;DHT22;9195;53.176;9.486;2022-10-13T15:13:37;18.10;99.90
18139;DHT22;9195;53.176;9.486;2022-10-13T15:16:03;17.90;99.90
18139;DHT22;9195;53.176;9.486;2022-10-13T15:18:30;17.80;99.90
18139;DHT22;9195;53.176;9.486;2022-10-13T15:20:56;17.60;99.90
18139;DHT22;9195;53.176;9.486;2022-10-13T15:23:23;17.50;99.90
18139;DHT22;9195;53.176;9.486;2022-10-13T15:25:54;17.40;99.90
18139;DHT22;9195;53.176;9.486;2022-10-13T15:28:24;17.20;99.90
18139;DHT22;9195;53.176;9.486;2022-10-13T15:30:50;17.10;99.90
18139;DHT22;9195;53.176;9.486;2022-10-13T15:33:16;17.00;99.90
18139;DHT22;9195;53.176;9.486;2022-10-13T15:35:42;16.90;99.90
18139;DHT22;9195;53.176;9.486;2022-10-13T15:38:08;16.90;99.90
18139;DHT22;9195;53.176;9.486;2022-10-13T15:40:37;16.80;99.90
18139;DHT22;9195;53.176;9.486;2022-10-13T15:43:03;16.70;99.90
18139;DHT22;9195;53.176;9.486;2022-10-13T15:45:30;16.60;99.90
18139;DHT22;9195;53.176;9.486;2022-10-13T15:47:56;16.60;99.90
18139;DHT22;9195;53.176;9.486;2022-10-13T15:50:23;16.50;99.90
18139;DHT22;9195;53.176;9.486;2022-10-13T15:52:48;16.50;99.90
18139;DHT22;9195;53.176;9.486;2022-10-13T15:55:14;16.50;99.90
18139;DHT22;9195;53.176;9.486;2022-10-13T15:57:40;16.40;99.90
18139;DHT22;9195;53.176;9.486;2022-10-13T16:00:07;16.30;99.90
18139;DHT22;9195;53.176;9.486;2022-10-13T16:02:32;16.30;99.90
18139;DHT22;9195;53.176;9.486;2022-10-13T16:04:58;16.30;99.90
18139;DHT22;9195;53.176;9.486;2022-10-13T16:07:32;16.30;99.90
18139;DHT22;9195;53.176;9.486;2022-10-13T16:09:58;16.30;99.90
18139;DHT22;9195;53.176;9.486;2022-10-13T16:12:24;16.20;99.90
18139;DHT22;9195;53.176;9.486;2022-10-13T16:14:50;16.20;99.90
18139;DHT22;9195;53.176;9.486;2022-10-13T16:17:16;16.20;99.90
18139;DHT22;9195;53.176;9.486;2022-10-13T16:19:41;16.10;99.90
18139;DHT22;9195;53.176;9.486;2022-10-13T16:22:07;16.10;99.90
18139;DHT22;9195;53.176;9.486;2022-10-13T16:24:33;16.10;99.90
18139;DHT22;9195;53.176;9.486;2022-10-13T16:26:59;16.10;99.90
18139;DHT22;9195;53.176;9.486;2022-10-13T16:29:25;16.00;99.90
18139;DHT22;9195;53.176;9.486;2022-10-13T16:31:51;16.00;99.90
18139;DHT22;9195;53.176;9.486;2022-10-13T16:34:17;16.00;99.90
18139;DHT22;9195;53.176;9.486;2022-10-13T16:36:43;16.00;99.90
18139;DHT22;9195;53.176;9.486;2022-10-13T16:39:09;15.90;99.90
18139;DHT22;9195;53.176;9.486;2022-10-13T16:41:34;15.90;99.90
18139;DHT22;9195;53.176;9.486;2022-10-13T16:44:00;15.90;99.90
18139;DHT22;9195;53.176;9.486;2022-10-13T16:46:26;15.80;99.90
18139;DHT22;9195;53.176;9.486;2022-10-13T16:48:52;15.80;99.90
18139;DHT22;9195;53.176;9.486;2022-10-13T16:51:20;15.80;99.90
18139;DHT22;9195;53.176;9.486;2022-10-13T16:53:50;15.70;99.90
18139;DHT22;9195;53.176;9.486;2022-10-13T16:56:16;15.70;99.90
18139;DHT22;9195;53.176;9.486;2022-10-13T16:58:58;15.70;99.90
18139;DHT22;9195;53.176;9.486;2022-10-13T17:01:25;15.60;99.90
18139;DHT22;9195;53.176;9.486;2022-10-13T17:03:51;15.50;99.90
18139;DHT22;9195;53.176;9.486;2022-10-13T17:06:18;15.50;99.90
18139;DHT22;9195;53.176;9.486;2022-10-13T17:08:44;15.50;99.90
18139;DHT22;9195;53.176;9.486;2022-10-13T17:11:16;15.50;99.90
18139;DHT22;9195;53.176;9.486;2022-10-13T17:13:41;15.50;99.90
18139;DHT22;9195;53.176;9.486;2022-10-13T17:16:07;15.50;99.90
18139;DHT22;9195;53.176;9.486;2022-10-13T17:18:33;15.40;99.90
18139;DHT22;9195;53.176;9.486;2022-10-13T17:21:01;15.40;99.90
18139;DHT22;9195;53.176;9.486;2022-10-13T17:23:27;15.40;99.90
18139;DHT22;9195;53.176;9.486;2022-10-13T17:25:54;15.30;99.90
18139;DHT22;9195;53.176;9.486;2022-10-13T17:28:20;15.30;99.90